Terminal Aerodrome Forecast
Issued by NWS

Home | Current Version | Previous Version | Text Only | Print | Product List | Glossary On
Versions: 1 2 3 4 5 6 7 8 9 10 11 12 13 14 15 16 17 18 19 20 21 22 23 24 25 26 27
263
FTUS45 KPSR 210241 AAA
TAFPHX
TAF AMD
KPHX 210241Z 2103/2206 26010KT P6SM FEW250
     FM210900 11006KT P6SM FEW250
     FM212000 25006KT P6SM SKC
     FM220400 09004KT P6SM SKC=

USA.gov is the U.S. government's official web portal to all federal, state and local government web resources and services.